createdAt,value
2022-11-18T00:01:32.021Z,98239.16
2022-11-18T00:04:02.047Z,98254.06
2022-11-18T00:06:31.818Z,98255.84
2022-11-18T00:09:01.200Z,98248.19
2022-11-18T00:11:48.411Z,98247.63
2022-11-18T00:14:23.437Z,98246.25
2022-11-18T00:16:54.952Z,98255.66
2022-11-18T00:19:28.375Z,98238.78
2022-11-18T00:21:56.995Z,98250.31
2022-11-18T00:24:26.438Z,98242.75
2022-11-18T00:26:55.484Z,98235.03
2022-11-18T00:29:26.281Z,98231.75
2022-11-18T00:31:54.650Z,98245.53
2022-11-18T00:34:25.129Z,98247.28
2022-11-18T00:36:53.522Z,98249.84
2022-11-18T00:39:22.885Z,98248.94
2022-11-18T00:42:08.985Z,98253.13
2022-11-18T00:44:37.394Z,98251.28
2022-11-18T00:47:06.470Z,98257.84
2022-11-18T00:49:36.303Z,98244.16
2022-11-18T00:52:05.512Z,98243.38
2022-11-18T00:54:33.913Z,98244.09
2022-11-18T00:57:02.215Z,98244.91
2022-11-18T00:59:30.571Z,98248.06
2022-11-18T01:01:59.099Z,98251.41
2022-11-18T01:04:27.555Z,98256.25
2022-11-18T01:06:57.311Z,98248.91
2022-11-18T01:09:25.748Z,98251.31
2022-11-18T01:12:11.695Z,98253.00
2022-11-18T01:14:40.118Z,98258.69
2022-11-18T01:17:08.544Z,98263.69
2022-11-18T01:19:36.993Z,98267.06
2022-11-18T01:22:06.807Z,98271.53
2022-11-18T01:24:35.967Z,98274.00
2022-11-18T01:27:04.543Z,98282.34
2022-11-18T01:29:32.943Z,98283.41
2022-11-18T01:32:23.248Z,98273.16
2022-11-18T01:34:49.684Z,98284.34
2022-11-18T01:37:19.411Z,98288.75
2022-11-18T01:39:47.824Z,98284.22
2022-11-18T01:42:18.922Z,98292.78
2022-11-18T01:45:12.050Z,98283.16
2022-11-18T01:47:46.591Z,98292.44
2022-11-18T01:50:17.534Z,98294.22
2022-11-18T01:52:51.642Z,98292.72
2022-11-18T01:55:25.923Z,98286.69
2022-11-18T01:58:00.762Z,98295.25
2022-11-18T02:00:29.280Z,98292.91
2022-11-18T02:02:58.802Z,98295.31
2022-11-18T02:05:27.821Z,98293.28
2022-11-18T02:07:57.955Z,98300.16
2022-11-18T02:10:26.476Z,98295.69
2022-11-18T02:12:56.055Z,98289.06
2022-11-18T02:15:39.094Z,98300.09
2022-11-18T02:18:22.091Z,98298.41
2022-11-18T02:20:56.599Z,98297.63
2022-11-18T02:24:27.954Z,98284.78
2022-11-18T02:27:46.813Z,98295.94
2022-11-18T02:30:18.565Z,98298.28
2022-11-18T02:32:55.221Z,98300.88
2022-11-18T02:35:31.236Z,98305.34
2022-11-18T02:38:04.589Z,98302.91
2022-11-18T02:40:38.147Z,98297.75
2022-11-18T02:43:12.336Z,98302.00
2022-11-18T02:45:47.745Z,98304.47
2022-11-18T02:48:17.996Z,98304.66
2022-11-18T02:50:48.122Z,98297.63
2022-11-18T02:53:21.336Z,98307.19
2022-11-18T02:55:51.091Z,98301.53
2022-11-18T02:58:22.148Z,98302.91
2022-11-18T03:00:56.783Z,98302.19
2022-11-18T03:03:29.038Z,98310.13
2022-11-18T03:06:09.770Z,98315.19
2022-11-18T03:08:44.047Z,98311.59
2022-11-18T03:11:19.403Z,98311.47
2022-11-18T03:14:07.350Z,98314.97
2022-11-18T03:16:41.922Z,98316.72
2022-11-18T03:19:20.254Z,98322.72
2022-11-18T03:21:59.109Z,98315.63
2022-11-18T03:24:32.664Z,98325.13
2022-11-18T03:27:08.855Z,98324.19
2022-11-18T03:29:41.539Z,98325.44
2022-11-18T03:32:18.820Z,98323.41
2022-11-18T03:34:50.681Z,98325.31
2022-11-18T03:37:22.416Z,98331.53
2022-11-18T03:39:55.416Z,98333.22
2022-11-18T03:42:28.965Z,98345.44
2022-11-18T03:45:02.653Z,98344.38
2022-11-18T03:47:37.137Z,98349.06
2022-11-18T03:50:14.912Z,98359.19
2022-11-18T03:52:44.902Z,98348.66
2022-11-18T03:55:19.175Z,98359.47
2022-11-18T03:57:53.283Z,98357.81
2022-11-18T04:00:21.868Z,98367.41
2022-11-18T04:02:53.352Z,98358.56
2022-11-18T04:05:22.188Z,98356.78
2022-11-18T04:07:59.090Z,98358.69
2022-11-18T04:10:32.676Z,98358.56
2022-11-18T04:13:07.049Z,98366.28
2022-11-18T04:15:38.306Z,98366.19
2022-11-18T04:18:08.531Z,98367.13
2022-11-18T04:20:38.032Z,98369.03
2022-11-18T04:23:06.928Z,98377.28
2022-11-18T04:25:35.781Z,98377.25
2022-11-18T04:28:04.595Z,98376.38
2022-11-18T04:30:33.344Z,98374.56
2022-11-18T04:33:02.891Z,98382.13
2022-11-18T04:35:32.627Z,98375.09
2022-11-18T04:38:01.002Z,98381.13
2022-11-18T04:40:29.320Z,98385.38
2022-11-18T04:42:57.707Z,98378.75
2022-11-18T04:45:26.126Z,98383.81
2022-11-18T04:47:58.806Z,98396.66
2022-11-18T04:50:30.542Z,98388.88
2022-11-18T04:53:00.308Z,98387.84
2022-11-18T04:55:31.560Z,98396.81
2022-11-18T04:57:59.931Z,98393.50
2022-11-18T05:00:28.328Z,98394.47
2022-11-18T05:02:56.830Z,98393.63
2022-11-18T05:05:25.292Z,98398.16
2022-11-18T05:07:53.782Z,98392.34
2022-11-18T05:10:23.594Z,98389.88
2022-11-18T05:12:51.862Z,98398.38
2022-11-18T05:15:24.021Z,98395.75
2022-11-18T05:17:52.491Z,98408.00
2022-11-18T05:20:21.590Z,98403.03
2022-11-18T05:22:49.962Z,98403.66
2022-11-18T05:25:18.457Z,98408.81
2022-11-18T05:27:48.232Z,98416.47
2022-11-18T05:30:16.766Z,98417.81
2022-11-18T05:32:45.151Z,98416.69
2022-11-18T05:35:13.604Z,98426.03
2022-11-18T05:37:41.949Z,98422.69
2022-11-18T05:40:12.315Z,98429.53
2022-11-18T05:42:58.488Z,98438.34
2022-11-18T05:45:28.398Z,98430.66
2022-11-18T05:48:04.597Z,98430.66
2022-11-18T05:50:35.598Z,98431.63
2022-11-18T05:53:05.123Z,98440.13
2022-11-18T05:55:39.738Z,98452.06
2022-11-18T05:58:08.367Z,98447.56
2022-11-18T06:00:38.368Z,98443.28
2022-11-18T06:03:15.118Z,98447.91
2022-11-18T06:05:43.852Z,98456.66
2022-11-18T06:08:14.406Z,98464.53
2022-11-18T06:10:44.688Z,98456.88
2022-11-18T06:13:21.213Z,98466.97
2022-11-18T06:15:51.368Z,98468.16
2022-11-18T06:18:24.421Z,98467.25
2022-11-18T06:20:55.443Z,98473.53
2022-11-18T06:23:24.171Z,98477.69
2022-11-18T06:25:52.836Z,98483.69
2022-11-18T06:28:22.891Z,98490.66
2022-11-18T06:30:52.658Z,98486.50
2022-11-18T06:33:21.069Z,98495.84
2022-11-18T06:35:49.613Z,98506.19
2022-11-18T06:38:19.122Z,98502.91
2022-11-18T06:40:47.757Z,98503.75
2022-11-18T06:43:33.741Z,98517.25
2022-11-18T06:46:22.626Z,98520.75
2022-11-18T06:48:52.740Z,98526.78
2022-11-18T06:51:21.265Z,98527.97
2022-11-18T06:53:49.926Z,98538.94
2022-11-18T06:56:20.696Z,98537.16
2022-11-18T06:58:49.425Z,98541.41
2022-11-18T07:01:22.315Z,98535.47
2022-11-18T07:03:51.341Z,98537.16
2022-11-18T07:06:23.210Z,98555.88
2022-11-18T07:08:52.825Z,98554.09
2022-11-18T07:11:23.350Z,98555.88
2022-11-18T07:13:52.133Z,98561.28
2022-11-18T07:16:24.016Z,98563.06
2022-11-18T07:18:54.769Z,98559.59
2022-11-18T07:21:25.227Z,98554.50
2022-11-18T07:23:58.004Z,98569.09
2022-11-18T07:26:26.516Z,98579.16
2022-11-18T07:28:55.667Z,98573.13
2022-11-18T07:31:25.513Z,98568.94
2022-11-18T07:33:54.736Z,98582.63
2022-11-18T07:36:27.788Z,98588.84
2022-11-18T07:39:02.141Z,98590.38
2022-11-18T07:41:31.648Z,98596.34
2022-11-18T07:44:02.629Z,98593.09
2022-11-18T07:46:34.548Z,98596.63
2022-11-18T07:49:05.665Z,98597.34
2022-11-18T07:51:37.145Z,98605.16
2022-11-18T07:54:08.589Z,98606.78
2022-11-18T07:56:37.219Z,98616.06
2022-11-18T07:59:06.318Z,98614.47
2022-11-18T08:01:36.559Z,98617.00
2022-11-18T08:04:10.376Z,98614.47
2022-11-18T08:06:39.597Z,98626.63
2022-11-18T08:09:09.773Z,98616.19
2022-11-18T08:11:38.504Z,98627.44
2022-11-18T08:14:06.939Z,98640.47
2022-11-18T08:16:36.860Z,98634.50
2022-11-18T08:19:05.395Z,98640.53
2022-11-18T08:21:33.784Z,98645.75
2022-11-18T08:24:02.343Z,98647.56
2022-11-18T08:26:30.790Z,98644.06
2022-11-18T08:29:00.452Z,98646.75
2022-11-18T08:31:30.721Z,98653.50
2022-11-18T08:34:02.629Z,98649.13
2022-11-18T08:36:33.347Z,98643.13
2022-11-18T08:39:04.972Z,98657.41
2022-11-18T08:41:37.124Z,98659.88
2022-11-18T08:44:07.869Z,98659.03
2022-11-18T08:46:36.460Z,98660.56
2022-11-18T08:49:06.380Z,98657.69
2022-11-18T08:51:35.026Z,98665.25
2022-11-18T08:54:03.530Z,98666.19
2022-11-18T08:56:32.247Z,98674.16
2022-11-18T08:59:00.726Z,98675.03
2022-11-18T09:01:29.202Z,98674.06
2022-11-18T09:03:57.925Z,98677.72
2022-11-18T09:06:27.885Z,98688.28
2022-11-18T09:08:56.456Z,98683.81
2022-11-18T09:11:27.341Z,98686.94
2022-11-18T09:16:46.671Z,98686.91
2022-11-18T09:19:46.812Z,98700.47
2022-11-18T09:22:07.546Z,98689.50
2022-11-18T09:24:36.832Z,98692.91
2022-11-18T09:27:10.770Z,98696.25
2022-11-18T09:29:42.270Z,98705.66
2022-11-18T09:32:10.691Z,98701.75
2022-11-18T09:34:39.157Z,98704.53
2022-11-18T09:37:08.980Z,98713.34
2022-11-18T09:39:37.906Z,98715.81
2022-11-18T09:42:33.628Z,98719.41
2022-11-18T09:45:20.728Z,98721.09
2022-11-18T09:47:52.780Z,98723.19
2022-11-18T09:53:21.499Z,98727.94
2022-11-18T09:55:51.909Z,98725.47
2022-11-18T09:58:31.050Z,98718.50
2022-11-18T10:00:59.764Z,98723.81
2022-11-18T10:03:30.309Z,98722.78
2022-11-18T10:06:07.128Z,98731.28
2022-11-18T10:08:47.133Z,98720.69
2022-11-18T10:11:19.298Z,98727.34
2022-11-18T10:14:01.258Z,98730.09
2022-11-18T10:16:43.686Z,98732.59
2022-11-18T10:19:27.400Z,98730.00
2022-11-18T10:22:16.732Z,98738.63
2022-11-18T10:24:53.481Z,98744.22
2022-11-18T10:27:22.858Z,98741.34
2022-11-18T10:29:57.197Z,98739.75
2022-11-18T10:32:25.944Z,98745.56
2022-11-18T10:34:57.667Z,98741.53
2022-11-18T10:37:45.821Z,98750.16
2022-11-18T10:40:29.894Z,98751.66
2022-11-18T10:42:58.652Z,98749.13
2022-11-18T10:45:30.378Z,98759.22
2022-11-18T10:48:02.422Z,98747.63
2022-11-18T10:50:35.424Z,98756.19
2022-11-18T10:53:04.462Z,98752.34
2022-11-18T10:55:35.157Z,98762.69
2022-11-18T10:58:10.745Z,98770.16
2022-11-18T11:00:43.597Z,98762.84
2022-11-18T11:03:36.707Z,98762.69
2022-11-18T11:06:43.859Z,98761.34
2022-11-18T11:09:26.604Z,98774.28
2022-11-18T11:12:03.480Z,98769.72
2022-11-18T11:14:41.039Z,98765.75
2022-11-18T11:17:14.638Z,98773.09
2022-11-18T11:19:50.478Z,98771.53
2022-11-18T11:22:19.412Z,98767.44
2022-11-18T11:24:48.485Z,98769.19
2022-11-18T11:30:28.214Z,98768.13
2022-11-18T11:33:24.140Z,98776.06
2022-11-18T11:36:05.961Z,98775.84
2022-11-18T11:38:48.447Z,98776.75
2022-11-18T11:41:24.301Z,98778.53
2022-11-18T11:44:21.406Z,98790.47
2022-11-18T11:47:23.568Z,98788.78
2022-11-18T11:49:57.755Z,98792.81
2022-11-18T11:52:36.135Z,98786.78
2022-11-18T11:55:18.540Z,98787.00
2022-11-18T11:58:18.656Z,98788.69
2022-11-18T12:00:59.201Z,98786.09
2022-11-18T12:03:51.773Z,98795.25
2022-11-18T12:06:20.806Z,98793.25
2022-11-18T12:09:04.536Z,98791.72
2022-11-18T12:11:40.166Z,98795.84
2022-11-18T12:14:16.671Z,98788.34
2022-11-18T12:16:53.955Z,98791.59
2022-11-18T12:19:24.365Z,98793.53
2022-11-18T12:22:04.057Z,98791.34
2022-11-18T12:24:43.610Z,98799.94
2022-11-18T12:27:16.537Z,98795.13
2022-11-18T12:29:57.723Z,98800.34
2022-11-18T12:32:42.750Z,98790.66
2022-11-18T12:35:28.847Z,98794.78
2022-11-18T12:38:03.980Z,98791.94
2022-11-18T12:40:39.421Z,98795.41
2022-11-18T12:43:48.734Z,98798.31
2022-11-18T12:46:52.229Z,98794.00
2022-11-18T12:50:15.035Z,98795.81
2022-11-18T12:52:54.997Z,98799.84
2022-11-18T12:55:32.170Z,98802.94
2022-11-18T12:58:00.960Z,98803.63
2022-11-18T13:00:52.760Z,98789.88
2022-11-18T13:03:32.029Z,98805.59
2022-11-18T13:06:15.933Z,98806.47
2022-11-18T13:08:44.376Z,98807.66
2022-11-18T13:11:36.617Z,98805.44
2022-11-18T13:14:24.885Z,98810.28
2022-11-18T13:17:10.995Z,98806.47
2022-11-18T13:19:39.626Z,98808.72
2022-11-18T13:22:37.414Z,98803.19
2022-11-18T13:25:06.205Z,98818.50
2022-11-18T13:27:53.370Z,98816.75
2022-11-18T13:30:22.551Z,98818.44
2022-11-18T13:32:51.639Z,98822.63
2022-11-18T13:35:22.993Z,98820.78
2022-11-18T13:37:56.387Z,98816.75
2022-11-18T13:40:28.798Z,98827.03
2022-11-18T13:42:57.522Z,98819.81
2022-11-18T13:45:29.610Z,98818.63
2022-11-18T13:48:06.900Z,98823.16
2022-11-18T13:50:38.801Z,98814.03
2022-11-18T13:53:19.918Z,98817.50
2022-11-18T13:55:52.589Z,98816.63
2022-11-18T13:59:02.814Z,98833.63
2022-11-18T14:01:29.389Z,98824.16
2022-11-18T14:04:00.736Z,98832.28
2022-11-18T14:06:31.404Z,98833.47
2022-11-18T14:09:25.141Z,98839.63
2022-11-18T14:12:03.139Z,98830.97
2022-11-18T14:14:34.464Z,98839.56
2022-11-18T14:17:18.348Z,98834.22
2022-11-18T14:19:47.925Z,98824.19
2022-11-18T14:22:19.850Z,98832.91
2022-11-18T14:24:58.002Z,98841.66
2022-11-18T14:27:38.508Z,98834.22
2022-11-18T14:30:36.797Z,98843.16
2022-11-18T14:33:26.459Z,98845.88
2022-11-18T14:35:58.164Z,98847.78
2022-11-18T14:38:48.184Z,98849.09
2022-11-18T14:41:44.919Z,98850.44
2022-11-18T14:44:14.464Z,98849.69
2022-11-18T14:46:47.115Z,98846.97
2022-11-18T14:49:19.827Z,98858.47
2022-11-18T14:51:48.809Z,98852.53
2022-11-18T14:54:25.390Z,98856.19
2022-11-18T14:56:59.863Z,98858.78
2022-11-18T14:59:28.640Z,98866.66
2022-11-18T15:01:58.577Z,98871.16
2022-11-18T15:04:27.254Z,98867.84
2022-11-18T15:06:56.229Z,98874.00
2022-11-18T15:09:24.999Z,98872.41
2022-11-18T15:11:53.405Z,98865.38
2022-11-18T15:14:23.148Z,98878.31
2022-11-18T15:16:51.542Z,98880.00
2022-11-18T15:19:19.949Z,98876.53
2022-11-18T15:21:48.440Z,98878.13
2022-11-18T15:24:17.186Z,98881.78
2022-11-18T15:26:48.439Z,98880.22
2022-11-18T15:29:19.986Z,98880.31
2022-11-18T15:31:50.245Z,98885.38
2022-11-18T15:34:21.608Z,98883.91
2022-11-18T15:36:50.703Z,98895.91
2022-11-18T15:39:19.177Z,98893.38
2022-11-18T15:41:47.640Z,98900.44
2022-11-18T15:44:16.515Z,98897.28
2022-11-18T15:46:47.951Z,98903.31
2022-11-18T15:49:18.649Z,98902.75
2022-11-18T15:51:47.059Z,98899.31
2022-11-18T15:54:15.572Z,98888.44
2022-11-18T15:56:44.167Z,98905.63
2022-11-18T15:59:14.731Z,98911.75
2022-11-18T16:01:45.582Z,98906.66
2022-11-18T16:04:18.008Z,98918.72
2022-11-18T16:06:47.185Z,98919.72
2022-11-18T16:09:17.545Z,98920.63
2022-11-18T16:12:03.654Z,98920.78
2022-11-18T16:14:32.085Z,98914.81
2022-11-18T16:17:00.486Z,98917.94
2022-11-18T16:19:33.441Z,98921.38
2022-11-18T16:22:01.957Z,98920.72
2022-11-18T16:24:30.889Z,98927.72
2022-11-18T16:26:59.617Z,98927.78
2022-11-18T16:29:28.062Z,98931.28
2022-11-18T16:31:56.574Z,98929.00
2022-11-18T16:34:27.703Z,98931.66
2022-11-18T16:37:00.775Z,98924.16
2022-11-18T16:39:30.662Z,98931.19
2022-11-18T16:42:07.942Z,98932.22
2022-11-18T16:44:37.583Z,98950.34
2022-11-18T16:47:13.878Z,98944.25
2022-11-18T16:49:44.051Z,98945.09
2022-11-18T16:52:13.849Z,98956.41
2022-11-18T16:54:45.819Z,98960.00
2022-11-18T16:57:15.301Z,98957.41
2022-11-18T16:59:43.763Z,98960.88
2022-11-18T17:02:13.995Z,98964.38
2022-11-18T17:04:42.970Z,98969.63
2022-11-18T17:07:11.470Z,98967.00
2022-11-18T17:09:41.305Z,98971.25
2022-11-18T17:12:09.994Z,98967.81
2022-11-18T17:14:40.051Z,98972.13
2022-11-18T17:17:09.115Z,98975.41
2022-11-18T17:19:37.689Z,98980.41
2022-11-18T17:22:06.197Z,98983.06
2022-11-18T17:24:34.620Z,98978.56
2022-11-18T17:27:04.528Z,98984.69
2022-11-18T17:29:34.520Z,98983.72
2022-11-18T17:32:03.064Z,98975.16
2022-11-18T17:34:31.438Z,98981.13
2022-11-18T17:37:06.143Z,98979.25
2022-11-18T17:39:35.614Z,98987.19
2022-11-18T17:42:15.024Z,98983.75
2022-11-18T17:44:43.447Z,98986.41
2022-11-18T17:47:11.899Z,98987.91
2022-11-18T17:49:40.288Z,98982.81
2022-11-18T17:52:09.069Z,98990.59
2022-11-18T17:54:37.514Z,98988.16
2022-11-18T17:57:07.284Z,98984.69
2022-11-18T17:59:35.768Z,98984.91
2022-11-18T18:02:04.271Z,98996.97
2022-11-18T18:04:32.591Z,99002.22
2022-11-18T18:07:01.000Z,99001.50
2022-11-18T18:09:31.332Z,98998.03
2022-11-18T18:12:20.934Z,99003.03
2022-11-18T18:14:49.807Z,99001.13
2022-11-18T18:17:18.486Z,99005.56
2022-11-18T18:19:47.026Z,99014.38
2022-11-18T18:22:15.435Z,99010.25
2022-11-18T18:24:43.805Z,99008.41
2022-11-18T18:27:12.283Z,99013.81
2022-11-18T18:29:40.667Z,99009.50
2022-11-18T18:32:10.608Z,99018.22
2022-11-18T18:34:38.995Z,99020.03
2022-11-18T18:37:07.437Z,99020.00
2022-11-18T18:39:35.862Z,99013.41
2022-11-18T18:42:04.291Z,99017.03
2022-11-18T18:44:46.655Z,99015.13
2022-11-18T18:47:16.451Z,99024.44
2022-11-18T18:49:45.719Z,99025.31
2022-11-18T18:52:14.125Z,99021.16
2022-11-18T18:54:42.577Z,99027.34
2022-11-18T18:57:10.972Z,99022.22
2022-11-18T18:59:39.407Z,99015.66
2022-11-18T19:02:08.324Z,99030.25
2022-11-18T19:04:39.627Z,99029.31
2022-11-18T19:07:08.120Z,99032.91
2022-11-18T19:09:37.878Z,99026.06
2022-11-18T19:12:24.820Z,99028.00
2022-11-18T19:14:55.101Z,99029.69
2022-11-18T19:17:23.978Z,99030.56
2022-11-18T19:20:11.402Z,99034.63
2022-11-18T19:22:39.903Z,99038.00
2022-11-18T19:25:09.130Z,99041.41
2022-11-18T19:27:40.183Z,99041.41
2022-11-18T19:30:10.975Z,99051.75
2022-11-18T19:32:41.095Z,99050.78
2022-11-18T19:35:11.441Z,99045.75
2022-11-18T19:37:39.811Z,99050.91
2022-11-18T19:40:10.858Z,99056.78
2022-11-18T19:42:39.728Z,99055.03
2022-11-18T19:45:09.767Z,99063.75
2022-11-18T19:47:38.526Z,99071.63
2022-11-18T19:50:08.066Z,99076.00
2022-11-18T19:52:37.773Z,99076.94
2022-11-18T19:55:07.996Z,99075.31
2022-11-18T19:57:36.429Z,99076.94
2022-11-18T20:00:06.804Z,99084.72
2022-11-18T20:02:39.290Z,99082.19
2022-11-18T20:05:26.705Z,99085.47
2022-11-18T20:07:57.506Z,99084.63
2022-11-18T20:10:25.927Z,99085.75
2022-11-18T20:12:54.234Z,99084.84
2022-11-18T20:15:22.701Z,99095.19
2022-11-18T20:17:51.263Z,99094.28
2022-11-18T20:20:19.703Z,99090.84
2022-11-18T20:22:48.105Z,99102.03
2022-11-18T20:25:18.042Z,99093.22
2022-11-18T20:27:46.612Z,99093.44
2022-11-18T20:30:15.522Z,99089.94
2022-11-18T20:32:46.009Z,99091.59
2022-11-18T20:35:14.472Z,99088.97
2022-11-18T20:37:43.575Z,99091.66
2022-11-18T20:40:13.606Z,99084.78
2022-11-18T20:43:00.907Z,99089.09
2022-11-18T20:45:29.365Z,99091.63
2022-11-18T20:47:57.670Z,99089.94
2022-11-18T20:50:26.213Z,99088.41
2022-11-18T20:52:54.644Z,99090.28
2022-11-18T20:55:23.111Z,99076.59
2022-11-18T20:57:52.971Z,99085.97
2022-11-18T21:00:21.827Z,99092.88
2022-11-18T21:02:51.228Z,99089.31
2022-11-18T21:05:19.641Z,99095.47
2022-11-18T21:07:49.213Z,99092.19
2022-11-18T21:10:18.547Z,99100.84
2022-11-18T21:13:00.887Z,99099.09
2022-11-18T21:15:30.686Z,99097.41
2022-11-18T21:17:59.218Z,99107.75
2022-11-18T21:20:45.261Z,99100.75
2022-11-18T21:23:14.088Z,99106.66
2022-11-18T21:25:43.274Z,99102.25
2022-11-18T21:28:12.505Z,99099.53
2022-11-18T21:30:42.659Z,99102.13
2022-11-18T21:33:11.178Z,99109.78
2022-11-18T21:35:39.527Z,99109.88
2022-11-18T21:38:07.971Z,99110.66
2022-11-18T21:40:36.750Z,99110.66
2022-11-18T21:43:05.220Z,99117.41
2022-11-18T21:45:33.603Z,99115.69
2022-11-18T21:48:03.336Z,99119.16
2022-11-18T21:50:31.733Z,99119.31
2022-11-18T21:53:00.146Z,99127.81
2022-11-18T21:55:29.067Z,99134.63
2022-11-18T21:58:02.663Z,99122.72
2022-11-18T22:00:32.268Z,99131.47
2022-11-18T22:03:02.074Z,99136.00
2022-11-18T22:05:30.425Z,99139.63
2022-11-18T22:07:58.798Z,99147.75
2022-11-18T22:10:27.164Z,99147.13
2022-11-18T22:12:55.562Z,99151.75
2022-11-18T22:15:24.720Z,99148.50
2022-11-18T22:17:53.196Z,99148.41
2022-11-18T22:20:22.908Z,99151.09
2022-11-18T22:22:51.335Z,99157.22
2022-11-18T22:25:19.841Z,99151.13
2022-11-18T22:27:48.403Z,99150.25
2022-11-18T22:30:17.418Z,99159.94
2022-11-18T22:32:45.795Z,99155.66
2022-11-18T22:35:14.250Z,99162.47
2022-11-18T22:37:44.472Z,99167.00
2022-11-18T22:40:14.197Z,99159.06
2022-11-18T22:42:48.794Z,99169.38
2022-11-18T22:45:17.741Z,99164.38
2022-11-18T22:47:46.137Z,99169.88
2022-11-18T22:50:14.493Z,99173.38
2022-11-18T22:52:44.555Z,99171.88
2022-11-18T22:55:13.226Z,99179.56
2022-11-18T22:57:41.586Z,99180.44
2022-11-18T23:00:12.458Z,99190.16
2022-11-18T23:02:40.899Z,99185.81
2022-11-18T23:05:10.715Z,99178.34
2022-11-18T23:07:39.113Z,99182.16
2022-11-18T23:10:10.212Z,99192.44
2022-11-18T23:12:56.320Z,99198.47
2022-11-18T23:15:24.778Z,99197.78
2022-11-18T23:17:53.215Z,99199.56
2022-11-18T23:20:21.632Z,99205.78
2022-11-18T23:22:50.034Z,99207.38
2022-11-18T23:25:19.908Z,99210.97
2022-11-18T23:27:51.664Z,99214.28
2022-11-18T23:30:22.680Z,99212.72
2022-11-18T23:32:53.855Z,99216.09
2022-11-18T23:35:22.246Z,99222.81
2022-11-18T23:37:50.558Z,99227.88
2022-11-18T23:40:20.569Z,99225.44
2022-11-18T23:42:49.033Z,99220.50
2022-11-18T23:45:17.660Z,99227.47
2022-11-18T23:47:46.018Z,99236.91
2022-11-18T23:50:14.540Z,99231.88
2022-11-18T23:52:43.182Z,99227.69
2022-11-18T23:55:11.640Z,99235.31
2022-11-18T23:57:43.310Z,99230.16
